createdAt,value
2023-01-13T21:11:44.109Z,7.71
2023-01-13T21:16:07.103Z,7.85
2023-01-13T21:17:06.734Z,7.81
2023-01-13T21:18:06.758Z,7.74
2023-01-13T21:19:06.990Z,7.68
2023-01-13T21:20:06.736Z,7.63
2023-01-13T21:21:09.016Z,7.61
2023-01-13T21:22:06.703Z,7.6
2023-01-13T21:23:06.732Z,7.56
2023-01-13T21:24:06.698Z,7.51
2023-01-13T21:25:06.753Z,7.46
2023-01-13T21:26:06.801Z,7.44
2023-01-13T21:27:06.738Z,7.45
2023-01-13T21:28:06.690Z,7.47
2023-01-13T21:29:07.020Z,7.52
2023-01-13T21:30:06.703Z,7.58
2023-01-13T21:31:06.725Z,7.64
2023-01-13T21:32:09.147Z,7.7
2023-01-13T21:33:06.754Z,7.74
2023-01-13T21:34:06.969Z,7.75
2023-01-13T21:35:06.677Z,7.71
2023-01-13T21:36:06.751Z,7.7
2023-01-13T21:37:06.793Z,7.69
2023-01-13T21:38:06.700Z,7.72
2023-01-13T21:39:06.964Z,7.76
2023-01-13T21:40:06.732Z,7.77
2023-01-13T21:41:06.962Z,7.78
2023-01-13T21:42:06.930Z,7.76
2023-01-13T21:43:09.076Z,7.76
2023-01-13T21:44:06.965Z,7.7
2023-01-13T21:45:06.753Z,7.65
2023-01-13T21:46:06.804Z,7.61
2023-01-13T21:47:06.600Z,7.51
2023-01-13T21:48:06.717Z,7.46
2023-01-13T21:49:06.725Z,7.43
2023-01-13T21:50:06.686Z,7.42
2023-01-13T21:51:06.636Z,7.43
2023-01-13T21:52:06.736Z,7.43
2023-01-13T21:53:06.979Z,7.48
2023-01-13T21:54:09.097Z,7.51
2023-01-13T21:55:06.730Z,7.53
2023-01-13T21:56:06.973Z,7.53
2023-01-13T21:57:06.748Z,7.52
2023-01-13T21:58:07.048Z,7.51
2023-01-13T21:59:06.636Z,7.48
2023-01-13T22:00:06.705Z,7.45
2023-01-13T22:01:06.819Z,7.45
2023-01-13T22:02:23.339Z,7.47
2023-01-13T22:03:06.976Z,7.47
2023-01-13T22:04:06.709Z,7.47
2023-01-13T22:05:09.026Z,7.45
2023-01-13T22:06:06.675Z,7.41
2023-01-13T22:07:06.728Z,7.38
2023-01-13T22:08:07.056Z,7.34
2023-01-13T22:09:06.667Z,7.35
2023-01-13T22:10:06.730Z,7.33
2023-01-13T22:11:06.665Z,7.34
2023-01-13T22:12:06.710Z,7.34
2023-01-13T22:13:06.675Z,7.36
2023-01-13T22:14:06.694Z,7.38
2023-01-13T22:15:06.754Z,7.4
2023-01-13T22:16:09.164Z,7.39
2023-01-13T22:17:06.655Z,7.36
2023-01-13T22:18:06.753Z,7.35
2023-01-13T22:19:06.722Z,7.39
2023-01-13T22:20:06.687Z,7.42
2023-01-13T22:21:06.630Z,7.39
2023-01-13T22:22:06.740Z,7.31
2023-01-13T22:23:06.974Z,7.2
2023-01-13T22:24:06.680Z,7.09
2023-01-13T22:25:06.641Z,7.04
2023-01-13T22:26:07.008Z,6.95
2023-01-13T22:27:09.109Z,6.94
2023-01-13T22:28:06.750Z,6.91
2023-01-13T22:29:06.863Z,6.99
2023-01-13T22:30:06.611Z,7.02
2023-01-13T22:31:06.738Z,7.04
2023-01-13T22:32:06.625Z,7.03
2023-01-13T22:33:06.976Z,7.02
2023-01-13T22:34:06.710Z,7.01
2023-01-13T22:35:06.761Z,6.98
2023-01-13T22:36:06.722Z,6.95
2023-01-13T22:37:06.695Z,6.94
2023-01-13T22:38:11.568Z,6.91
2023-01-13T22:39:06.733Z,6.89
2023-01-13T22:40:06.666Z,6.86
2023-01-13T22:41:06.788Z,6.87
2023-01-13T22:42:06.689Z,6.86
2023-01-13T22:43:06.717Z,6.85
2023-01-13T22:44:06.740Z,6.88
2023-01-13T22:45:06.663Z,6.94
2023-01-13T22:46:06.659Z,6.91
2023-01-13T22:47:06.631Z,6.89
2023-01-13T22:48:06.601Z,6.87
2023-01-13T22:49:09.128Z,6.89
2023-01-13T22:50:06.754Z,6.89
2023-01-13T22:51:06.754Z,6.94
2023-01-13T22:52:06.755Z,6.93
2023-01-13T22:53:07.081Z,6.94
2023-01-13T22:54:06.732Z,6.95
2023-01-13T22:55:06.653Z,6.96
2023-01-13T22:56:06.635Z,6.97
2023-01-13T22:57:06.678Z,6.98
2023-01-13T22:58:06.750Z,7
2023-01-13T22:59:06.656Z,6.99
2023-01-13T23:00:09.362Z,7
2023-01-13T23:01:06.767Z,7.04
2023-01-13T23:02:06.605Z,7.07
2023-01-13T23:03:06.672Z,7.08
2023-01-13T23:04:06.663Z,7.08
2023-01-13T23:05:06.658Z,7.11
2023-01-13T23:06:06.765Z,7.12
2023-01-13T23:07:06.589Z,7.14
2023-01-13T23:08:06.637Z,7.17
2023-01-13T23:09:06.643Z,7.2
2023-01-13T23:10:06.683Z,7.23
2023-01-13T23:11:09.084Z,7.22
2023-01-13T23:12:06.586Z,7.26
2023-01-13T23:13:06.739Z,7.29
2023-01-13T23:14:06.676Z,7.3
2023-01-13T23:15:06.643Z,7.32
2023-01-13T23:16:06.731Z,7.34
2023-01-13T23:17:06.742Z,7.32
2023-01-13T23:18:06.673Z,7.36
2023-01-13T23:19:06.645Z,7.37
2023-01-13T23:20:06.706Z,7.33
2023-01-13T23:21:06.635Z,7.28
2023-01-13T23:22:09.060Z,7.24
2023-01-13T23:23:06.723Z,7.23
2023-01-13T23:24:06.716Z,7.22
2023-01-13T23:25:06.706Z,7.23
2023-01-13T23:26:06.708Z,7.23
2023-01-13T23:27:06.961Z,7.23
2023-01-13T23:28:06.976Z,7.26
2023-01-13T23:29:06.651Z,7.27
2023-01-13T23:30:06.638Z,7.26
2023-01-13T23:31:06.770Z,7.28
2023-01-13T23:32:06.740Z,7.31
2023-01-13T23:33:11.598Z,7.33
2023-01-13T23:34:06.646Z,7.36
2023-01-13T23:35:06.717Z,7.38
2023-01-13T23:36:06.683Z,7.4
2023-01-13T23:37:06.761Z,7.4
2023-01-13T23:38:06.756Z,7.39
2023-01-13T23:39:06.611Z,7.43
2023-01-13T23:40:06.731Z,7.46
2023-01-13T23:41:06.744Z,7.47
2023-01-13T23:42:06.972Z,7.48
2023-01-13T23:43:06.965Z,7.46
2023-01-13T23:44:08.998Z,7.46
2023-01-13T23:45:06.633Z,7.48
2023-01-13T23:46:06.759Z,7.5
2023-01-13T23:47:06.700Z,7.51
2023-01-13T23:48:06.982Z,7.51
2023-01-13T23:49:06.650Z,7.53
2023-01-13T23:50:06.716Z,7.53
2023-01-13T23:51:06.748Z,7.51
2023-01-13T23:52:06.620Z,7.5
2023-01-13T23:53:06.983Z,7.51
2023-01-13T23:54:06.677Z,7.48
2023-01-13T23:55:09.090Z,7.47
2023-01-13T23:56:06.715Z,7.46
2023-01-13T23:57:06.963Z,7.45
2023-01-13T23:58:06.688Z,7.42
2023-01-13T23:59:06.654Z,7.43
